Time;durP1;ratioP1;P1;durP2;ratioP2;P2;SDS_P1;SDS_P2;PMS_P1;PMS_P2;Temp;Humidity;BMP_temperature;BMP_pressure;BME280_temperature;BME280_humidity;BME280_pressure;Samples;Min_cycle;Max_cycle;Signal;HPM_P1;HPM_P2
2022/01/24 00:01:24;;;;;;;4.22;2.60;;;5.50;99.90;;;;;;5032332;28;20033;-44
2022/01/24 00:03:56;;;;;;;4.68;2.70;;;5.50;99.90;;;;;;5032184;28;20098;-49
2022/01/24 00:06:22;;;;;;;3.35;2.90;;;5.60;99.90;;;;;;5032492;28;20036;-42
2022/01/24 00:08:48;;;;;;;3.55;2.47;;;5.50;99.90;;;;;;5032632;28;20174;-43
2022/01/24 00:11:17;;;;;;;3.38;2.60;;;5.60;99.90;;;;;;5032475;28;20113;-46
2022/01/24 00:14:30;;;;;;;2.75;2.22;;;5.50;99.90;;;;;;5031886;28;20416;-45
2022/01/24 00:27:16;;;;;;;6.30;3.40;;;5.50;99.90;;;;;;5032656;28;20032;-50
2022/01/24 00:29:41;;;;;;;2.92;2.72;;;5.60;99.90;;;;;;5032335;28;20026;-41
2022/01/24 00:32:07;;;;;;;3.42;3.13;;;5.60;99.90;;;;;;5032565;28;20148;-50
2022/01/24 00:34:32;;;;;;;4.60;3.22;;;5.70;99.90;;;;;;5031934;28;20034;-47
2022/01/24 00:36:58;;;;;;;3.20;2.92;;;5.70;99.90;;;;;;5032426;28;20558;-48
2022/01/24 00:39:24;;;;;;;4.97;2.83;;;5.70;99.90;;;;;;5032004;28;20033;-45
2022/01/24 00:46:58;;;;;;;3.00;2.73;;;5.80;99.90;;;;;;5034390;28;20544;-44
2022/01/24 00:54:52;;;;;;;3.95;3.08;;;5.70;99.90;;;;;;5031399;28;20107;-41
2022/01/24 00:57:19;;;;;;;3.25;2.95;;;5.70;99.90;;;;;;5031971;28;20029;-49
2022/01/24 00:59:45;;;;;;;3.40;3.10;;;5.70;99.90;;;;;;5031733;28;20040;-45
2022/01/24 01:02:11;;;;;;;3.65;3.35;;;5.60;99.90;;;;;;5031633;28;20451;-46
2022/01/24 01:07:07;;;;;;;3.10;2.85;;;5.60;99.90;;;;;;5031961;28;20112;-45
2022/01/24 01:20:36;;;;;;;3.55;3.25;;;5.60;99.90;;;;;;5031324;28;20032;-50
2022/01/24 01:23:01;;;;;;;3.15;2.78;;;5.60;99.90;;;;;;5029824;28;20022;-47
2022/01/24 01:25:27;;;;;;;3.10;2.65;;;5.60;99.90;;;;;;5031302;28;20048;-49
2022/01/24 01:27:54;;;;;;;3.58;2.70;;;5.60;99.90;;;;;;5031389;28;20026;-41
2022/01/24 01:30:24;;;;;;;3.95;2.63;;;5.70;99.90;;;;;;5031310;28;20025;-49
2022/01/24 01:33:17;;;;;;;3.60;2.75;;;5.60;99.90;;;;;;5030705;28;20025;-39
2022/01/24 01:35:52;;;;;;;4.72;2.83;;;5.50;99.90;;;;;;5031172;28;20088;-42
2022/01/24 01:57:18;;;;;;;3.83;3.42;;;5.70;99.90;;;;;;5050555;28;20423;-47
2022/01/24 01:59:44;;;;;;;3.55;3.05;;;5.60;99.90;;;;;;5050554;28;20462;-48
2022/01/24 02:02:10;;;;;;;3.30;2.92;;;5.60;99.90;;;;;;5050531;28;20052;-48
2022/01/24 02:04:36;;;;;;;2.95;2.72;;;5.60;99.90;;;;;;5034300;28;20048;-46
2022/01/24 02:07:02;;;;;;;2.80;2.60;;;5.60;99.90;;;;;;5050469;28;20107;-50
2022/01/24 02:09:30;;;;;;;2.63;2.30;;;5.60;99.90;;;;;;5050482;28;20484;-47
2022/01/24 02:11:56;;;;;;;2.60;2.40;;;5.60;99.90;;;;;;5049193;28;20036;-47
2022/01/24 02:14:25;;;;;;;2.72;2.50;;;5.60;99.90;;;;;;5050440;28;20514;-51
2022/01/24 02:16:57;;;;;;;3.85;2.92;;;5.60;99.90;;;;;;5050734;28;20032;-48
2022/01/24 02:19:48;;;;;;;2.88;2.67;;;5.60;99.90;;;;;;5050488;28;20079;-49
2022/01/24 02:23:15;;;;;;;3.75;3.25;;;5.60;99.90;;;;;;5049163;28;20047;-49
2022/01/24 02:25:11;;;;;;;3.20;2.90;;;5.50;99.90;;;;;;5041697;28;20479;-49
2022/01/24 02:27:46;;;;;;;9.13;2.78;;;5.50;99.90;;;;;;5049062;28;20032;-51
2022/01/24 02:32:56;;;;;;;4.63;2.67;;;5.50;99.90;;;;;;5050622;28;20071;-49
2022/01/24 02:35:22;;;;;;;3.25;2.75;;;5.50;99.90;;;;;;5050316;28;20116;-54
2022/01/24 02:37:47;;;;;;;3.33;2.70;;;5.60;99.90;;;;;;5050781;28;20028;-44
2022/01/24 02:40:17;;;;;;;3.30;2.65;;;5.50;99.90;;;;;;5053911;28;20514;-50
2022/01/24 02:48:28;;;;;;;3.10;2.70;;;5.50;99.90;;;;;;5054394;28;20102;-47
2022/01/24 02:53:41;;;;;;;2.45;2.25;;;5.50;99.90;;;;;;5053908;28;20052;-48
2022/01/24 02:56:07;;;;;;;2.53;2.10;;;5.60;99.90;;;;;;5053743;28;20028;-48
2022/01/24 02:58:33;;;;;;;2.28;2.03;;;5.50;99.90;;;;;;5053903;28;20418;-46
2022/01/24 03:01:00;;;;;;;2.97;2.17;;;5.50;99.90;;;;;;5052146;28;20024;-50
2022/01/24 03:03:25;;;;;;;5.20;1.95;;;5.50;99.90;;;;;;5053421;28;20033;-47
2022/01/24 03:05:52;;;;;;;3.53;2.28;;;5.50;99.90;;;;;;5053672;28;20052;-47
2022/01/24 03:08:21;;;;;;;2.67;2.38;;;5.50;99.90;;;;;;5053985;28;20021;-48
2022/01/24 03:10:47;;;;;;;3.53;1.90;;;5.40;99.90;;;;;;5052440;28;20033;-48
2022/01/24 03:15:55;;;;;;;3.28;2.28;;;5.60;99.90;;;;;;5053403;28;20472;-47
2022/01/24 03:18:22;;;;;;;3.90;2.25;;;5.50;99.90;;;;;;5053783;28;20033;-51
2022/01/24 03:20:48;;;;;;;3.00;2.10;;;5.50;99.90;;;;;;5053728;28;20143;-50
2022/01/24 03:23:19;;;;;;;2.40;1.83;;;5.50;99.90;;;;;;5052821;28;20048;-52
2022/01/24 03:25:44;;;;;;;3.38;1.95;;;5.50;99.90;;;;;;5053933;28;20507;-49
2022/01/24 03:28:11;;;;;;;3.75;2.10;;;5.60;99.90;;;;;;5053821;28;20043;-49
2022/01/24 03:30:37;;;;;;;2.45;2.33;;;5.50;99.90;;;;;;5053902;28;20025;-50
2022/01/24 03:33:05;;;;;;;2.85;2.42;;;5.50;99.90;;;;;;5053607;28;20112;-48
2022/01/24 03:35:31;;;;;;;2.90;2.63;;;5.50;99.90;;;;;;5052503;28;20078;-53
2022/01/24 03:37:57;;;;;;;4.15;2.63;;;5.50;99.90;;;;;;5053669;28;20025;-48
2022/01/24 03:40:23;;;;;;;3.20;1.95;;;5.60;99.90;;;;;;5052449;28;20036;-48
2022/01/24 03:42:49;;;;;;;4.15;2.30;;;5.50;99.90;;;;;;5052329;28;20037;-50
2022/01/24 03:45:16;;;;;;;2.58;2.38;;;5.50;99.90;;;;;;5053628;28;20155;-47
2022/01/24 03:48:01;;;;;;;3.72;3.42;;;5.60;99.90;;;;;;5053620;28;20431;-53
2022/01/24 03:50:26;;;;;;;3.05;2.60;;;5.60;99.90;;;;;;5052073;28;20484;-49
2022/01/24 03:52:52;;;;;;;3.45;3.15;;;5.60;99.90;;;;;;5053305;28;20112;-51
2022/01/24 03:55:17;;;;;;;4.32;2.72;;;5.60;99.90;;;;;;5053253;28;20084;-48
2022/01/24 03:57:43;;;;;;;5.60;3.22;;;5.50;99.90;;;;;;5053343;28;20021;-46
2022/01/24 04:00:10;;;;;;;4.72;2.97;;;5.50;99.90;;;;;;5053480;28;20110;-47
2022/01/24 04:02:36;;;;;;;4.53;3.15;;;5.50;99.90;;;;;;5053434;28;20032;-47
2022/01/24 04:05:02;;;;;;;4.50;3.13;;;5.50;99.90;;;;;;5053141;28;20511;-48
2022/01/24 04:07:27;;;;;;;3.67;3.38;;;5.50;99.90;;;;;;5053383;28;20029;-47
2022/01/24 04:09:53;;;;;;;3.42;3.00;;;5.50;99.90;;;;;;5052977;28;20443;-51
2022/01/24 04:12:24;;;;;;;2.60;2.38;;;5.50;99.90;;;;;;5053340;28;20025;-47
2022/01/24 04:22:10;;;;;;;3.60;2.45;;;5.50;99.90;;;;;;5053396;28;20069;-47
2022/01/24 04:24:36;;;;;;;3.17;2.25;;;5.50;99.90;;;;;;5052948;28;20070;-47
2022/01/24 04:27:02;;;;;;;3.10;2.00;;;5.50;99.90;;;;;;5052990;28;20071;-47
2022/01/24 04:29:28;;;;;;;3.05;2.50;;;5.50;99.90;;;;;;5052792;28;20021;-46
2022/01/24 04:31:53;;;;;;;2.63;2.45;;;5.50;99.90;;;;;;5052812;28;20036;-48
2022/01/24 04:34:19;;;;;;;2.00;1.90;;;5.50;99.90;;;;;;5052401;28;20139;-48
2022/01/24 04:36:44;;;;;;;4.93;1.88;;;5.50;99.90;;;;;;5052564;28;20400;-49
2022/01/24 04:39:10;;;;;;;2.00;1.90;;;5.50;99.90;;;;;;5052556;28;20041;-46
2022/01/24 04:41:39;;;;;;;2.75;2.30;;;5.50;99.90;;;;;;5052846;28;20021;-45
2022/01/24 04:44:19;;;;;;;2.13;1.95;;;5.50;99.90;;;;;;5052469;28;20480;-46
2022/01/24 04:47:12;;;;;;;2.50;2.13;;;5.40;99.90;;;;;;5052984;28;20071;-46
2022/01/24 04:52:33;;;;;;;3.47;2.08;;;5.30;99.90;;;;;;5052577;28;20036;-51
2022/01/24 04:54:59;;;;;;;2.45;2.03;;;5.30;99.90;;;;;;5052097;28;20031;-48
2022/01/24 04:57:26;;;;;;;3.22;2.40;;;5.20;99.90;;;;;;5052199;28;20025;-48
2022/01/24 04:59:56;;;;;;;2.33;2.22;;;5.30;99.90;;;;;;5052198;28;20480;-49
2022/01/24 05:02:23;;;;;;;2.45;2.05;;;5.30;99.90;;;;;;5051535;28;20029;-48
2022/01/24 05:04:49;;;;;;;2.47;2.28;;;5.30;99.90;;;;;;5051914;28;20017;-48
2022/01/24 05:07:15;;;;;;;2.85;2.65;;;5.30;99.90;;;;;;5052617;28;20151;-47
2022/01/24 05:23:44;;;;;;;2.45;2.35;;;5.30;99.90;;;;;;5051809;28;20040;-48
2022/01/24 05:26:09;;;;;;;2.90;2.35;;;5.30;99.90;;;;;;5051350;28;20075;-49
2022/01/24 05:28:37;;;;;;;2.88;2.67;;;5.20;99.90;;;;;;5051686;28;20049;-51
2022/01/24 05:31:04;;;;;;;2.58;2.40;;;5.20;99.90;;;;;;5051564;28;20021;-49
2022/01/24 05:33:30;;;;;;;6.10;3.00;;;5.20;99.90;;;;;;5051416;28;20046;-48
2022/01/24 05:35:56;;;;;;;3.00;2.75;;;5.20;99.90;;;;;;5051787;28;20373;-48
2022/01/24 05:38:24;;;;;;;2.50;2.30;;;5.30;99.90;;;;;;5051666;28;20028;-50
2022/01/24 05:40:50;;;;;;;3.15;2.75;;;5.30;99.90;;;;;;5051328;28;20488;-49
2022/01/24 05:43:16;;;;;;;5.22;2.80;;;5.30;99.90;;;;;;5051228;28;20029;-50
2022/01/24 05:45:42;;;;;;;3.45;3.15;;;5.40;99.90;;;;;;5051310;28;20036;-48
2022/01/24 05:48:07;;;;;;;4.63;4.22;;;5.30;99.90;;;;;;5051745;28;20025;-47
2022/01/24 05:50:34;;;;;;;3.97;3.58;;;5.40;99.90;;;;;;5051641;28;20029;-46
2022/01/24 05:52:59;;;;;;;6.35;3.67;;;5.40;99.90;;;;;;5051056;28;20029;-53
2022/01/24 05:55:25;;;;;;;4.90;3.33;;;5.30;99.90;;;;;;5049855;28;20043;-54
2022/01/24 05:57:53;;;;;;;5.10;3.72;;;5.30;99.90;;;;;;5051334;28;20496;-47
2022/01/24 06:00:19;;;;;;;5.55;3.63;;;5.40;99.90;;;;;;5051457;28;20670;-47
2022/01/24 06:02:45;;;;;;;3.40;3.20;;;5.30;99.90;;;;;;5051014;28;20033;-48
2022/01/24 06:05:10;;;;;;;6.65;4.45;;;5.30;99.90;;;;;;5051368;28;20074;-50
2022/01/24 06:07:36;;;;;;;6.65;4.88;;;5.40;99.90;;;;;;5051233;28;20082;-47
2022/01/24 06:10:03;;;;;;;4.63;4.22;;;5.40;99.90;;;;;;5049774;28;20025;-46
2022/01/24 06:12:28;;;;;;;5.10;3.88;;;5.40;99.90;;;;;;5052572;28;20021;-50
2022/01/24 06:14:54;;;;;;;4.25;3.85;;;5.30;99.90;;;;;;5054778;28;20051;-49
2022/01/24 06:17:19;;;;;;;5.78;3.65;;;5.40;99.90;;;;;;5055194;28;20033;-47
2022/01/24 06:19:45;;;;;;;5.72;4.53;;;5.40;99.90;;;;;;5055134;28;20029;-51
2022/01/24 06:22:11;;;;;;;6.55;4.03;;;5.40;99.90;;;;;;5054873;28;20053;-61
2022/01/24 06:24:36;;;;;;;5.10;4.32;;;5.40;99.90;;;;;;5053308;28;20071;-48
2022/01/24 06:27:02;;;;;;;4.95;4.53;;;5.40;99.90;;;;;;5054941;28;20059;-53
2022/01/24 06:29:28;;;;;;;4.65;4.25;;;5.40;99.90;;;;;;5054616;28;20029;-52
2022/01/24 06:31:53;;;;;;;5.03;4.63;;;5.50;99.90;;;;;;5054884;28;20037;-46
2022/01/24 06:34:19;;;;;;;5.78;4.35;;;5.40;99.90;;;;;;5054129;28;20036;-47
2022/01/24 06:36:44;;;;;;;7.78;4.30;;;5.40;99.90;;;;;;5054715;28;20032;-48
2022/01/24 06:39:11;;;;;;;7.47;4.88;;;5.50;99.90;;;;;;5053696;28;20033;-50
2022/01/24 06:41:37;;;;;;;5.90;4.68;;;5.40;99.90;;;;;;5053773;28;20056;-47
2022/01/24 06:44:03;;;;;;;4.57;4.28;;;5.40;99.90;;;;;;5053692;28;20053;-46
2022/01/24 06:46:29;;;;;;;4.50;4.07;;;5.40;99.90;;;;;;5053952;28;20021;-47
2022/01/24 06:48:55;;;;;;;3.53;3.30;;;5.30;99.90;;;;;;5053886;28;20479;-49
2022/01/24 06:51:22;;;;;;;4.45;4.03;;;5.20;99.90;;;;;;5053824;28;20033;-47
2022/01/24 06:53:48;;;;;;;4.13;3.72;;;5.20;99.90;;;;;;5052214;28;20029;-45
2022/01/24 06:56:15;;;;;;;3.70;3.42;;;5.20;99.90;;;;;;5054299;28;20032;-47
2022/01/24 06:58:41;;;;;;;5.53;3.33;;;5.30;99.90;;;;;;5054603;28;20051;-48
2022/01/24 07:01:06;;;;;;;7.65;3.90;;;5.30;99.90;;;;;;5054292;28;20025;-47
2022/01/24 07:03:32;;;;;;;5.32;3.10;;;5.20;99.90;;;;;;5054220;28;20031;-46
2022/01/24 07:05:58;;;;;;;4.50;3.70;;;5.30;99.90;;;;;;5054167;28;20464;-51
2022/01/24 07:08:24;;;;;;;3.83;3.58;;;5.20;99.90;;;;;;5054484;28;20104;-48
2022/01/24 07:10:50;;;;;;;5.20;3.58;;;5.30;99.90;;;;;;5054162;28;20029;-48
2022/01/24 07:13:16;;;;;;;3.85;3.47;;;5.40;99.90;;;;;;5054102;28;20779;-48
2022/01/24 07:15:51;;;;;;;3.53;3.22;;;5.40;99.90;;;;;;5054112;28;20028;-49
2022/01/24 07:21:00;;;;;;;5.35;3.65;;;5.30;99.90;;;;;;5054203;28;20029;-47
2022/01/24 07:23:26;;;;;;;3.70;3.40;;;5.30;99.90;;;;;;5051863;28;20056;-47
2022/01/24 07:25:52;;;;;;;2.90;2.70;;;5.40;99.90;;;;;;5052405;28;20052;-46
2022/01/24 07:28:18;;;;;;;5.65;3.17;;;5.40;99.90;;;;;;5053823;28;20025;-48
2022/01/24 07:30:45;;;;;;;8.98;3.85;;;5.40;99.90;;;;;;5053766;28;20408;-47
2022/01/24 07:33:12;;;;;;;7.60;4.20;;;5.40;99.90;;;;;;5046782;28;20033;-49
2022/01/24 07:35:37;;;;;;;4.85;3.28;;;5.30;99.90;;;;;;5036331;28;20028;-45
2022/01/24 07:38:05;;;;;;;6.22;3.58;;;5.30;99.90;;;;;;5033929;28;20025;-46
2022/01/24 07:40:37;;;;;;;4.85;3.60;;;5.30;99.90;;;;;;5036629;28;20025;-47
2022/01/24 07:43:11;;;;;;;3.17;2.97;;;5.40;99.90;;;;;;5051214;28;20631;-48
2022/01/24 07:45:38;;;;;;;8.00;3.15;;;5.50;99.90;;;;;;5046217;28;20033;-44
2022/01/24 07:48:05;;;;;;;4.85;3.58;;;5.40;99.90;;;;;;5033659;28;20040;-47
2022/01/24 07:50:31;;;;;;;8.23;3.78;;;5.40;99.90;;;;;;5033914;28;20017;-45
2022/01/24 07:52:59;;;;;;;7.47;3.17;;;5.40;99.90;;;;;;5035679;28;20383;-48
2022/01/24 07:55:25;;;;;;;6.07;3.40;;;5.40;99.90;;;;;;5053955;23;20033;-45
2022/01/24 07:57:51;;;;;;;3.60;3.30;;;5.50;99.90;;;;;;5048350;28;20064;-46
2022/01/24 08:00:17;;;;;;;7.07;3.58;;;5.50;99.90;;;;;;5052637;28;20094;-50
2022/01/24 08:02:43;;;;;;;6.13;3.55;;;5.40;99.90;;;;;;5052211;28;20021;-43
2022/01/24 08:05:10;;;;;;;7.50;3.75;;;5.50;99.90;;;;;;5052693;28;20029;-38
2022/01/24 08:07:37;;;;;;;4.18;3.58;;;5.50;99.90;;;;;;5033536;28;20025;-45
2022/01/24 08:10:05;;;;;;;3.70;3.40;;;5.60;99.90;;;;;;5033064;28;20358;-47
2022/01/24 08:12:31;;;;;;;4.10;3.20;;;5.60;99.90;;;;;;5043652;28;20028;-43
2022/01/24 08:14:59;;;;;;;4.93;4.43;;;5.60;99.90;;;;;;5048519;28;20056;-46
2022/01/24 08:17:25;;;;;;;5.72;3.90;;;5.60;99.90;;;;;;5043436;28;20104;-41
2022/01/24 08:19:50;;;;;;;4.90;3.67;;;5.70;99.90;;;;;;5039162;28;20483;-43
2022/01/24 08:22:16;;;;;;;3.95;3.58;;;5.80;99.90;;;;;;5042901;28;20495;-46
2022/01/24 08:24:41;;;;;;;5.53;3.45;;;5.70;99.90;;;;;;5051006;28;20381;-45
2022/01/24 08:27:07;;;;;;;3.88;3.58;;;5.70;99.90;;;;;;5047166;28;20108;-44
2022/01/24 08:29:33;;;;;;;5.22;3.42;;;5.60;99.90;;;;;;5048181;28;20374;-40
2022/01/24 08:31:58;;;;;;;3.25;3.05;;;5.70;99.90;;;;;;5048034;28;20060;-45
2022/01/24 08:34:24;;;;;;;5.43;2.95;;;5.70;99.90;;;;;;5048700;28;20499;-45
2022/01/24 08:36:49;;;;;;;2.75;2.53;;;5.80;99.90;;;;;;5042353;28;20124;-46
2022/01/24 08:39:15;;;;;;;8.30;3.05;;;5.80;99.90;;;;;;5049986;28;20024;-38
2022/01/24 08:44:32;;;;;;;4.30;3.35;;;5.80;99.90;;;;;;5041223;28;20075;-44
2022/01/24 08:46:57;;;;;;;3.53;3.20;;;5.90;99.90;;;;;;5032596;28;20436;-36
2022/01/24 08:49:23;;;;;;;3.92;3.42;;;6.00;99.90;;;;;;5033489;28;20029;-40
2022/01/24 08:51:49;;;;;;;4.47;3.20;;;6.10;99.90;;;;;;5032478;28;20025;-45
2022/01/24 08:54:15;;;;;;;4.38;3.42;;;6.20;99.90;;;;;;5032255;28;20037;-42
2022/01/24 08:56:49;;;;;;;6.57;3.10;;;6.20;99.90;;;;;;5069177;27;20785;-37
2022/01/24 08:59:14;;;;;;;5.40;3.30;;;6.10;99.90;;;;;;5068747;28;20075;-44
2022/01/24 09:01:40;;;;;;;3.83;3.45;;;6.00;99.90;;;;;;5069123;28;20027;-47
2022/01/24 09:04:06;;;;;;;4.32;3.35;;;6.00;99.90;;;;;;5068585;28;20134;-44
2022/01/24 09:06:31;;;;;;;6.53;3.33;;;6.10;99.90;;;;;;5068717;28;20403;-39
2022/01/24 09:09:01;;;;;;;3.47;3.17;;;6.00;99.90;;;;;;5068778;28;20104;-36
2022/01/24 09:11:29;;;;;;;6.55;3.75;;;6.00;99.90;;;;;;5069020;28;20047;-43
2022/01/24 09:13:56;;;;;;;4.82;3.85;;;5.90;99.90;;;;;;5069708;28;20494;-42
2022/01/24 09:16:22;;;;;;;5.65;3.70;;;5.90;99.90;;;;;;5068865;28;20029;-41
2022/01/24 09:18:48;;;;;;;5.43;3.90;;;5.90;99.90;;;;;;5067339;28;20048;-41
2022/01/24 09:21:13;;;;;;;5.47;4.20;;;5.80;99.90;;;;;;5068634;28;20025;-40
2022/01/24 09:23:39;;;;;;;4.85;4.28;;;5.80;99.90;;;;;;5068420;28;20039;-40
2022/01/24 09:26:04;;;;;;;5.82;4.35;;;5.80;99.90;;;;;;5068594;28;20085;-43
2022/01/24 09:28:30;;;;;;;7.03;4.50;;;5.70;99.90;;;;;;5068641;28;20024;-44
2022/01/24 09:30:57;;;;;;;6.97;4.03;;;5.70;99.90;;;;;;5068353;28;20507;-37
2022/01/24 09:33:23;;;;;;;3.95;3.65;;;5.60;99.90;;;;;;5068072;28;20043;-45
2022/01/24 09:35:49;;;;;;;85.68;43.05;;;5.60;99.90;;;;;;5067040;28;20025;-43
2022/01/24 09:38:16;;;;;;;18.20;12.40;;;5.70;99.90;;;;;;5071387;28;20017;-41
2022/01/24 09:40:42;;;;;;;6.85;3.90;;;5.70;99.90;;;;;;5068490;28;20368;-38
2022/01/24 09:43:07;;;;;;;4.55;4.15;;;5.60;99.90;;;;;;5067958;28;20032;-44
2022/01/24 09:45:33;;;;;;;9.85;4.32;;;5.70;99.90;;;;;;5068420;28;20029;-43
2022/01/24 09:47:59;;;;;;;7.18;4.35;;;5.60;99.90;;;;;;5068893;28;20025;-44
2022/01/24 09:50:24;;;;;;;10.85;5.45;;;5.60;99.90;;;;;;5068085;28;20029;-37
2022/01/24 09:52:51;;;;;;;9.52;4.80;;;5.70;99.90;;;;;;5067695;28;20448;-41
2022/01/24 09:55:19;;;;;;;9.52;4.15;;;5.70;99.90;;;;;;5067506;28;20028;-45
2022/01/24 09:57:47;;;;;;;7.85;4.20;;;5.60;99.90;;;;;;5068835;28;20033;-43
2022/01/24 10:00:16;;;;;;;7.47;3.97;;;5.60;99.90;;;;;;5068485;28;20021;-44
2022/01/24 10:02:43;;;;;;;6.50;3.88;;;5.60;99.90;;;;;;5067812;28;20028;-37
2022/01/24 10:05:26;;;;;;;5.10;4.00;;;5.60;99.90;;;;;;5067311;28;20082;-45
2022/01/24 10:07:55;;;;;;;5.43;4.50;;;5.60;99.90;;;;;;5056227;28;20025;-42
2022/01/24 10:10:45;;;;;;;4.10;3.70;;;5.60;99.90;;;;;;5052782;28;20592;-45
2022/01/24 10:19:11;;;;;;;9.32;5.07;;;5.80;99.90;;;;;;5054065;28;20048;-37
2022/01/24 10:21:56;;;;;;;8.18;4.57;;;5.90;99.90;;;;;;5045054;28;20022;-43
2022/01/24 10:24:37;;;;;;;4.63;4.15;;;5.90;99.90;;;;;;5048877;28;20484;-47
2022/01/24 10:27:15;;;;;;;7.78;5.18;;;5.90;99.90;;;;;;5056284;28;20059;-47
2022/01/24 10:30:08;;;;;;;5.18;4.60;;;5.90;99.90;;;;;;5048630;28;20140;-50
2022/01/24 10:32:48;;;;;;;7.55;4.75;;;6.00;99.90;;;;;;5038734;28;20503;-45
2022/01/24 10:35:42;;;;;;;9.30;5.00;;;6.00;99.90;;;;;;5034289;28;20481;-44
2022/01/24 10:38:26;;;;;;;8.77;5.38;;;6.00;99.90;;;;;;5053760;28;20447;-47
2022/01/24 10:41:08;;;;;;;5.72;4.97;;;6.00;99.90;;;;;;5049159;28;20043;-45
2022/01/24 10:43:36;;;;;;;7.28;4.43;;;6.00;99.90;;;;;;5039662;28;20026;-45
2022/01/24 10:46:02;;;;;;;10.13;5.10;;;6.00;99.90;;;;;;5051334;28;20434;-46
2022/01/24 10:48:31;;;;;;;5.63;4.97;;;6.00;99.90;;;;;;5049304;28;20081;-41
2022/01/24 10:51:12;;;;;;;5.15;4.57;;;6.00;99.90;;;;;;5037927;28;20091;-44
2022/01/24 10:53:37;;;;;;;8.55;5.13;;;5.90;99.90;;;;;;5035811;28;20033;-44
2022/01/24 10:56:31;;;;;;;6.20;4.35;;;6.10;99.90;;;;;;5040086;28;20021;-51
2022/01/24 10:59:15;;;;;;;6.78;4.10;;;6.20;99.90;;;;;;5047039;28;20021;-49
2022/01/24 11:01:49;;;;;;;10.43;5.13;;;6.20;99.90;;;;;;5051610;28;20025;-43
2022/01/24 11:04:15;;;;;;;6.93;4.53;;;6.30;99.90;;;;;;5036771;28;20048;-43
2022/01/24 11:06:43;;;;;;;5.63;4.03;;;6.20;99.90;;;;;;5043220;28;20028;-43
2022/01/24 11:09:22;;;;;;;6.43;4.00;;;6.20;99.90;;;;;;5046796;28;20033;-45
2022/01/24 11:12:11;;;;;;;6.78;4.40;;;6.00;99.90;;;;;;5046476;28;20071;-45
2022/01/24 11:14:44;;;;;;;7.72;3.75;;;6.00;99.90;;;;;;5034535;28;20037;-46
2022/01/24 11:17:13;;;;;;;5.07;4.45;;;6.10;99.90;;;;;;5039519;28;20045;-42
2022/01/24 11:19:47;;;;;;;7.20;4.15;;;6.10;99.90;;;;;;5044261;28;20038;-51
2022/01/24 11:22:24;;;;;;;4.88;4.40;;;6.10;99.90;;;;;;5042461;28;20024;-50
2022/01/24 11:25:04;;;;;;;6.68;4.00;;;6.10;99.90;;;;;;5052029;28;20029;-50
2022/01/24 11:27:30;;;;;;;54.40;28.60;;;6.10;99.90;;;;;;5044168;28;20037;-51
2022/01/24 11:29:59;;;;;;;7.93;4.97;;;6.10;99.90;;;;;;5045851;28;20086;-49
2022/01/24 11:32:28;;;;;;;7.82;4.88;;;6.10;99.90;;;;;;5050672;28;20506;-48
2022/01/24 11:34:56;;;;;;;8.13;4.53;;;6.10;99.90;;;;;;5032143;28;20021;-48
2022/01/24 11:37:45;;;;;;;4.93;3.65;;;6.20;99.90;;;;;;5032624;28;20396;-51
2022/01/24 11:40:13;;;;;;;7.20;4.35;;;6.20;99.90;;;;;;5036836;28;20040;-48
2022/01/24 11:42:40;;;;;;;4.93;3.40;;;6.10;99.90;;;;;;5051875;28;20025;-50
2022/01/24 11:45:14;;;;;;;6.95;4.47;;;6.00;99.90;;;;;;5044843;28;20028;-44
2022/01/24 11:47:42;;;;;;;6.45;3.85;;;5.90;99.90;;;;;;5032590;28;20029;-45
2022/01/24 11:50:32;;;;;;;5.45;3.80;;;6.00;99.90;;;;;;5031926;28;20022;-48
2022/01/24 11:52:58;;;;;;;9.98;3.75;;;6.00;99.90;;;;;;5041148;28;20032;-45
2022/01/24 11:55:37;;;;;;;8.55;4.22;;;6.00;99.90;;;;;;5047302;28;20052;-46
2022/01/24 11:58:08;;;;;;;6.82;3.85;;;6.10;99.90;;;;;;5033356;28;20018;-39
2022/01/24 12:00:39;;;;;;;4.10;3.72;;;6.20;99.90;;;;;;5033092;28;20542;-42
2022/01/24 12:03:35;;;;;;;5.65;3.47;;;6.20;99.90;;;;;;5043958;28;20082;-46
2022/01/24 12:06:09;;;;;;;5.15;3.00;;;6.30;99.90;;;;;;5031546;28;20045;-45
2022/01/24 12:08:34;;;;;;;3.38;2.97;;;6.40;99.90;;;;;;5032192;28;20424;-44
2022/01/24 12:11:18;;;;;;;8.18;3.10;;;6.40;99.90;;;;;;5033323;28;20033;-46
2022/01/24 12:13:47;;;;;;;6.00;2.92;;;6.50;99.90;;;;;;5032085;28;20571;-45
2022/01/24 12:16:15;;;;;;;4.88;3.30;;;6.60;99.90;;;;;;5031725;28;20075;-41
2022/01/24 12:18:40;;;;;;;8.32;3.97;;;6.60;99.90;;;;;;5031933;28;20511;-45
2022/01/24 12:21:10;;;;;;;4.53;2.67;;;6.70;99.90;;;;;;5032794;28;20025;-45
2022/01/24 12:23:37;;;;;;;7.28;3.30;;;6.70;99.90;;;;;;5030727;28;20033;-43
2022/01/24 12:26:08;;;;;;;8.80;2.88;;;6.70;99.90;;;;;;5031970;28;20026;-44
2022/01/24 12:28:42;;;;;;;3.17;2.88;;;6.60;99.90;;;;;;5032412;28;20030;-44
2022/01/24 12:31:26;;;;;;;3.45;3.08;;;6.60;99.90;;;;;;5032860;28;20069;-46
2022/01/24 12:33:54;;;;;;;8.63;3.25;;;6.60;99.90;;;;;;5031031;28;20033;-42
2022/01/24 12:36:47;;;;;;;4.90;3.20;;;6.50;99.90;;;;;;5041897;28;20500;-43
2022/01/24 12:39:27;;;;;;;7.78;3.70;;;6.60;99.90;;;;;;5051486;28;20515;-44
2022/01/24 12:41:58;;;;;;;5.55;3.60;;;6.60;99.90;;;;;;5050826;28;20511;-46
2022/01/24 12:47:04;;;;;;;4.60;2.83;;;6.70;99.90;;;;;;5051736;28;20021;-38
2022/01/24 12:49:30;;;;;;;2.67;2.47;;;6.70;99.90;;;;;;5051362;28;20032;-42
2022/01/24 12:52:03;;;;;;;4.72;2.92;;;6.70;99.90;;;;;;5049812;28;20033;-47
2022/01/24 12:54:34;;;;;;;4.45;2.78;;;6.70;99.90;;;;;;5050913;28;20049;-46
2022/01/24 12:57:02;;;;;;;3.22;2.63;;;6.70;99.90;;;;;;5049904;28;20028;-45
2022/01/24 12:59:28;;;;;;;3.00;2.60;;;6.70;99.90;;;;;;5051141;28;20028;-45
2022/01/24 13:01:56;;;;;;;4.75;2.75;;;6.70;99.90;;;;;;5051107;28;20025;-43
2022/01/24 13:04:39;;;;;;;6.32;3.08;;;6.80;99.90;;;;;;5031416;28;20488;-44
2022/01/24 13:07:09;;;;;;;7.32;2.67;;;6.70;99.90;;;;;;5031458;28;20028;-45
2022/01/24 13:09:36;;;;;;;3.25;2.55;;;6.90;99.90;;;;;;5036164;28;20091;-42
2022/01/24 13:12:08;;;;;;;8.93;2.97;;;6.90;99.90;;;;;;5051112;28;20072;-44
2022/01/24 13:22:47;;;;;;;3.53;2.72;;;6.60;99.90;;;;;;5051374;28;20040;-42
2022/01/24 13:25:39;;;;;;;3.60;2.67;;;6.50;99.90;;;;;;5035850;28;20033;-43
2022/01/24 13:28:06;;;;;;;8.27;3.25;;;6.70;99.90;;;;;;5031174;28;20053;-45
2022/01/24 13:30:45;;;;;;;4.07;3.20;;;6.50;99.90;;;;;;5044040;28;20033;-46
2022/01/24 13:33:15;;;;;;;5.60;2.80;;;6.50;99.90;;;;;;5048807;28;20171;-46
2022/01/24 13:35:44;;;;;;;6.88;3.25;;;6.50;99.90;;;;;;5046885;28;20086;-40
2022/01/24 13:38:25;;;;;;;5.57;3.45;;;6.50;99.90;;;;;;5038983;28;20032;-46
2022/01/24 13:40:57;;;;;;;4.97;3.28;;;6.60;99.90;;;;;;5041877;28;20508;-43
2022/01/24 13:43:33;;;;;;;3.28;2.95;;;6.60;99.90;;;;;;5053999;28;20025;-42
2022/01/24 13:46:00;;;;;;;6.13;2.88;;;6.70;99.90;;;;;;5037245;28;20025;-47
2022/01/24 13:48:26;;;;;;;3.75;3.08;;;6.70;99.90;;;;;;5053875;28;20029;-46
2022/01/24 13:50:54;;;;;;;7.53;3.30;;;6.70;99.90;;;;;;5046258;28;20066;-41
2022/01/24 13:53:40;;;;;;;4.70;2.92;;;6.70;99.90;;;;;;5034153;28;20104;-45
2022/01/24 13:56:24;;;;;;;6.33;2.60;;;6.80;99.90;;;;;;5042705;23;20583;-51
2022/01/24 13:59:04;;;;;;;6.55;2.67;;;6.80;99.90;;;;;;4968911;28;20282;-46
2022/01/24 14:01:30;;;;;;;3.75;3.40;;;6.80;99.90;;;;;;4956186;28;20027;-47
2022/01/24 14:04:02;;;;;;;6.57;2.83;;;6.80;99.90;;;;;;4961751;28;20037;-47
2022/01/24 14:06:32;;;;;;;6.10;2.88;;;6.80;99.90;;;;;;4955990;28;20031;-44
2022/01/24 14:09:09;;;;;;;4.80;2.88;;;6.80;99.90;;;;;;4955909;28;20054;-46
2022/01/24 14:11:43;;;;;;;7.32;2.92;;;6.80;99.90;;;;;;4955815;28;20173;-47
2022/01/24 14:14:13;;;;;;;7.25;2.63;;;6.80;99.90;;;;;;4972829;28;20106;-47
2022/01/24 14:19:11;;;;;;;3.97;2.80;;;6.80;99.90;;;;;;4974427;28;20027;-51
2022/01/24 14:21:37;;;;;;;5.55;2.72;;;6.80;99.90;;;;;;4975355;28;20034;-47
2022/01/24 14:24:03;;;;;;;49.13;23.33;;;6.70;99.90;;;;;;4974780;28;20372;-52
2022/01/24 14:26:30;;;;;;;11.65;6.88;;;6.70;99.90;;;;;;4975219;28;20077;-47
2022/01/24 14:29:14;;;;;;;7.55;3.30;;;6.70;99.90;;;;;;4975037;28;20482;-50
2022/01/24 14:31:43;;;;;;;7.22;3.88;;;6.70;99.90;;;;;;4974991;28;20093;-47
2022/01/24 14:34:09;;;;;;;8.27;2.70;;;6.70;99.90;;;;;;4974179;28;20101;-47
2022/01/24 14:36:36;;;;;;;6.15;3.67;;;6.60;99.90;;;;;;4974751;28;20158;-48
2022/01/24 14:39:07;;;;;;;5.88;2.97;;;6.50;99.90;;;;;;4974471;28;20019;-47
2022/01/24 14:41:45;;;;;;;2.78;2.58;;;6.60;99.90;;;;;;4974606;28;20046;-47
2022/01/24 14:46:58;;;;;;;5.20;2.92;;;6.40;99.90;;;;;;4974599;28;20414;-44
2022/01/24 14:49:27;;;;;;;3.65;3.10;;;6.40;99.90;;;;;;4974351;28;20038;-48
2022/01/24 14:51:57;;;;;;;4.53;3.20;;;6.40;99.90;;;;;;4974665;28;20046;-50
2022/01/24 14:54:26;;;;;;;7.75;3.72;;;6.40;99.90;;;;;;4974358;28;20058;-50
2022/01/24 14:56:53;;;;;;;4.18;3.20;;;6.30;99.90;;;;;;4974427;28;20051;-50
2022/01/24 14:59:20;;;;;;;5.85;3.42;;;6.30;99.90;;;;;;4974250;28;20090;-49
2022/01/24 15:01:46;;;;;;;5.57;3.08;;;6.20;99.90;;;;;;4974674;28;20038;-47
2022/01/24 15:04:12;;;;;;;5.60;3.20;;;6.20;99.90;;;;;;4974180;28;20022;-48
2022/01/24 15:06:39;;;;;;;8.40;3.55;;;6.20;99.90;;;;;;4973887;28;20073;-46
2022/01/24 15:09:09;;;;;;;10.25;4.20;;;6.20;99.90;;;;;;4974391;28;20034;-45